Caicara, Brazil
Current Conditions -  °F | °C
As of 1:45 AM on Sunday 25 Jan 2015 (Local Time) from SBCH Reporting Station
Scattered Clouds Scattered Clouds  
Wind Chill: 68°   Ceiling: Unl
Heat Index: 68°   Visibility: 6mi
Dew Point: 63°   Wind: 14mph
Humidity: 83%   Direction: 170°S
Pressure: 30"   Gusts: NA
Location:  27.27°S, 53.43°W
Report Text: SBCH 250345Z 17012KT 9999 FEW018 SCT090 20/17 Q1016
Loading
Personal Weather Stations






























Interactive Weather Map New forecast layout! Learn more

10-Day Weather Forecast

Advertisements
Track Severe Weather on mobile